Startpagina
METAR-TAF:

METAR-TAF

Vliegvelden :

Luchthaven Ouagadougou Internationaal

Ouagadougou, Burkina Faso

breedte: 12-21N, lengte: 001-31W, hoogte: 316 m

Actueel weer

Dit bericht is 54 minuten geleden gemaakt, om 06:00 UTC
Wind 10 kt uit het zuiden
Temperatuur 25°C
Vochtigheid 83%
Druk 1012 hPa
Zicht 10 km of meer
Weinig wolken op 2000 ft

METAR: DFFD 220600Z 18010KT 9999 FEW020 25/22 Q1012 NOSIG

Tijdstip: 06:54 (06:54 UTC)

Verwachting

Dit bericht is 1 uur en het 54 minuten geleden gemaakt, om 05:00 UTC
Verwachting geldig van 22 om 06 UTC tot 23 om 12 UTC
Wind 8 kt uit het zuidzuidwesten
Zicht 10 km of meer
Weinig wolken op 2000 ft
Tijdelijke
van 22 om 10 UTC tot 22 om 22 UTC
Zicht: 4000 m
Verspreide wolken op 2000 ft
Verspreide wolken op 3300 ft, Cumulonimbus.
onweer, regen

TAF: DFFD 220500Z 2206/2312 20008KT 9999 FEW020 TEMPO 2210/2222 4000 TSRA SCT020 SCT033CB

Waarnemingen en weersverwachtingen van meer dan 4000 vliegvelden (METAR en TAF).

De beschikbare stations zijn de gele en rode punten op de kaart.

Ga met uw muis naar het station om de naam te zien.

Klik dan om waarnemingen en weersverwachtingen te zien.

kaart wijzigen: klik op de groene knoppen met een zwart kruis om in te zoomen, op de groene knop met een streepje om uit te zoomen of op de groene pijlen voor aangrenzende kaarten.


METAR-TAF: